sensor_id;sensor_type;location;lat;lon;timestamp;pressure;altitude;pressure_sealevel;temperature;humidity
52797;BME280;38666;43.348;12.584;2023-01-25T06:54:17;96233.75;;;3.45;100.00
52797;BME280;38666;43.348;12.584;2023-01-25T06:56:44;96219.78;;;3.56;100.00
52797;BME280;38666;43.348;12.584;2023-01-25T06:59:09;96205.91;;;3.70;100.00
52797;BME280;38666;43.348;12.584;2023-01-25T07:01:34;96228.63;;;3.69;100.00
52797;BME280;38666;43.348;12.584;2023-01-25T07:04:01;96211.44;;;3.73;100.00
52797;BME280;38666;43.348;12.584;2023-01-25T07:06:31;96199.25;;;3.80;100.00
52797;BME280;38666;43.348;12.584;2023-01-25T07:09:04;96201.06;;;3.76;98.99
52797;BME280;38666;43.348;12.584;2023-01-25T07:11:30;96207.50;;;4.00;98.31
52797;BME280;38666;43.348;12.584;2023-01-25T07:13:56;96194.94;;;4.20;94.48
52797;BME280;38666;43.348;12.584;2023-01-25T07:16:21;96189.38;;;4.29;94.28
52797;BME280;38666;43.348;12.584;2023-01-25T07:18:47;96188.09;;;4.55;90.87
52797;BME280;38666;43.348;12.584;2023-01-25T07:21:21;96190.88;;;4.42;90.85
52797;BME280;38666;43.348;12.584;2023-01-25T07:23:50;96213.31;;;4.43;91.60
52797;BME280;38666;43.348;12.584;2023-01-25T07:26:22;96203.50;;;4.38;91.82
52797;BME280;38666;43.348;12.584;2023-01-25T07:28:48;96209.00;;;4.42;90.38
52797;BME280;38666;43.348;12.584;2023-01-25T07:31:15;96208.19;;;4.54;89.77
52797;BME280;38666;43.348;12.584;2023-01-25T07:33:41;96207.03;;;4.55;89.57
52797;BME280;38666;43.348;12.584;2023-01-25T07:36:08;96210.34;;;4.48;89.57
52797;BME280;38666;43.348;12.584;2023-01-25T07:38:35;96190.91;;;4.75;88.94
52797;BME280;38666;43.348;12.584;2023-01-25T07:41:01;96195.97;;;4.76;89.25
52797;BME280;38666;43.348;12.584;2023-01-25T07:43:27;96197.53;;;4.93;88.90
52797;BME280;38666;43.348;12.584;2023-01-25T07:45:58;96191.38;;;5.29;86.31
52797;BME280;38666;43.348;12.584;2023-01-25T07:48:24;96200.63;;;6.00;82.84
52797;BME280;38666;43.348;12.584;2023-01-25T07:50:49;96199.22;;;6.06;79.67
52797;BME280;38666;43.348;12.584;2023-01-25T07:53:35;96208.75;;;5.80;81.01
52797;BME280;38666;43.348;12.584;2023-01-25T07:56:00;96194.91;;;5.65;82.15
52797;BME280;38666;43.348;12.584;2023-01-25T07:58:26;96202.22;;;6.21;82.59
52797;BME280;38666;43.348;12.584;2023-01-25T08:00:51;96192.63;;;6.27;79.46
52797;BME280;38666;43.348;12.584;2023-01-25T08:03:18;96197.06;;;5.96;82.96
52797;BME280;38666;43.348;12.584;2023-01-25T08:05:46;96191.53;;;6.08;81.21
52797;BME280;38666;43.348;12.584;2023-01-25T08:08:12;96188.47;;;5.74;83.82
52797;BME280;38666;43.348;12.584;2023-01-25T08:10:37;96190.88;;;5.39;87.06
52797;BME280;38666;43.348;12.584;2023-01-25T08:13:03;96195.25;;;5.28;88.24
52797;BME280;38666;43.348;12.584;2023-01-25T08:15:28;96196.00;;;5.45;88.66
52797;BME280;38666;43.348;12.584;2023-01-25T08:17:54;96191.34;;;5.81;85.47
52797;BME280;38666;43.348;12.584;2023-01-25T08:20:19;96187.47;;;5.62;85.74
52797;BME280;38666;43.348;12.584;2023-01-25T08:22:46;96224.66;;;5.46;87.46
52797;BME280;38666;43.348;12.584;2023-01-25T08:25:12;96197.44;;;5.58;85.96
52797;BME280;38666;43.348;12.584;2023-01-25T08:27:37;96188.03;;;5.52;86.88
52797;BME280;38666;43.348;12.584;2023-01-25T08:30:03;96182.22;;;5.70;84.61
52797;BME280;38666;43.348;12.584;2023-01-25T08:32:28;96185.06;;;5.57;86.01
52797;BME280;38666;43.348;12.584;2023-01-25T08:34:54;96190.31;;;5.50;86.24
52797;BME280;38666;43.348;12.584;2023-01-25T08:37:19;96203.75;;;5.62;86.67
52797;BME280;38666;43.348;12.584;2023-01-25T08:39:45;96192.03;;;5.58;87.86
52797;BME280;38666;43.348;12.584;2023-01-25T08:42:10;96202.91;;;6.37;81.68
52797;BME280;38666;43.348;12.584;2023-01-25T08:44:36;96204.72;;;6.73;78.18
52797;BME280;38666;43.348;12.584;2023-01-25T08:47:01;96185.38;;;6.11;81.15
52797;BME280;38666;43.348;12.584;2023-01-25T08:49:26;96187.63;;;5.89;82.45
52797;BME280;38666;43.348;12.584;2023-01-25T08:51:55;96196.91;;;6.48;81.81
52797;BME280;38666;43.348;12.584;2023-01-25T08:54:20;96203.00;;;7.12;76.29
52797;BME280;38666;43.348;12.584;2023-01-25T08:56:46;96206.56;;;7.70;73.35
52797;BME280;38666;43.348;12.584;2023-01-25T08:59:12;96190.63;;;7.99;70.18
52797;BME280;38666;43.348;12.584;2023-01-25T09:01:38;96206.47;;;7.93;69.14
52797;BME280;38666;43.348;12.584;2023-01-25T09:04:04;96205.88;;;8.42;69.48
52797;BME280;38666;43.348;12.584;2023-01-25T09:06:29;96203.53;;;9.27;64.75
52797;BME280;38666;43.348;12.584;2023-01-25T09:08:55;96204.13;;;9.02;64.25
52797;BME280;38666;43.348;12.584;2023-01-25T09:11:21;96214.59;;;8.59;62.97
52797;BME280;38666;43.348;12.584;2023-01-25T09:13:47;96207.69;;;8.30;63.21
52797;BME280;38666;43.348;12.584;2023-01-25T09:16:16;96205.75;;;7.69;68.98
52797;BME280;38666;43.348;12.584;2023-01-25T09:18:43;96198.03;;;9.20;64.73
52797;BME280;38666;43.348;12.584;2023-01-25T09:21:15;96201.84;;;10.61;57.74
52797;BME280;38666;43.348;12.584;2023-01-25T09:23:43;96210.88;;;12.57;52.57
52797;BME280;38666;43.348;12.584;2023-01-25T09:26:09;96213.69;;;13.60;48.65
52797;BME280;38666;43.348;12.584;2023-01-25T09:28:35;96200.22;;;14.71;44.58
52797;BME280;38666;43.348;12.584;2023-01-25T09:31:03;96200.00;;;15.61;41.35
52797;BME280;38666;43.348;12.584;2023-01-25T09:33:33;96190.91;;;16.45;39.45
52797;BME280;38666;43.348;12.584;2023-01-25T09:36:00;96194.13;;;15.59;41.66
52797;BME280;38666;43.348;12.584;2023-01-25T09:38:25;96201.69;;;16.77;38.82
52797;BME280;38666;43.348;12.584;2023-01-25T09:46:51;96202.31;;;16.84;39.08
52797;BME280;38666;43.348;12.584;2023-01-25T09:54:52;96190.19;;;16.61;37.62
52797;BME280;38666;43.348;12.584;2023-01-25T09:59:56;96199.50;;;15.90;39.65
52797;BME280;38666;43.348;12.584;2023-01-25T10:02:46;96198.59;;;17.58;35.67
52797;BME280;38666;43.348;12.584;2023-01-25T10:05:17;96207.28;;;18.03;35.65
52797;BME280;38666;43.348;12.584;2023-01-25T10:10:20;96193.44;;;17.43;35.49
52797;BME280;38666;43.348;12.584;2023-01-25T10:12:47;96198.59;;;15.73;37.90
52797;BME280;38666;43.348;12.584;2023-01-25T10:15:17;96203.16;;;13.55;43.77
52797;BME280;38666;43.348;12.584;2023-01-25T10:17:44;96204.66;;;13.59;42.15
52797;BME280;38666;43.348;12.584;2023-01-25T10:20:50;96206.13;;;13.22;43.68
52797;BME280;38666;43.348;12.584;2023-01-25T10:24:00;96200.72;;;12.54;46.09
52797;BME280;38666;43.348;12.584;2023-01-25T10:26:23;96203.41;;;11.57;47.29
52797;BME280;38666;43.348;12.584;2023-01-25T10:31:24;96211.38;;;9.33;54.69
52797;BME280;38666;43.348;12.584;2023-01-25T10:33:51;96199.38;;;9.45;54.65
52797;BME280;38666;43.348;12.584;2023-01-25T10:36:23;96191.97;;;8.93;57.66
52797;BME280;38666;43.348;12.584;2023-01-25T10:38:51;96200.22;;;9.03;58.46
52797;BME280;38666;43.348;12.584;2023-01-25T10:43:56;96185.13;;;9.77;55.46
52797;BME280;38666;43.348;12.584;2023-01-25T10:46:45;96181.44;;;8.91;58.64
52797;BME280;38666;43.348;12.584;2023-01-25T10:49:23;96181.25;;;9.82;57.97
52797;BME280;38666;43.348;12.584;2023-01-25T10:51:49;96176.09;;;11.02;52.46
52797;BME280;38666;43.348;12.584;2023-01-25T10:54:15;96172.97;;;11.26;49.93
52797;BME280;38666;43.348;12.584;2023-01-25T10:56:42;96164.41;;;11.02;51.17
52797;BME280;38666;43.348;12.584;2023-01-25T11:01:41;96159.69;;;11.13;51.35
52797;BME280;38666;43.348;12.584;2023-01-25T11:06:47;96155.56;;;9.94;54.31
52797;BME280;38666;43.348;12.584;2023-01-25T11:14:22;96154.53;;;9.35;56.49
52797;BME280;38666;43.348;12.584;2023-01-25T11:16:48;96144.81;;;9.41;55.85
52797;BME280;38666;43.348;12.584;2023-01-25T11:21:58;96143.63;;;8.82;59.34
52797;BME280;38666;43.348;12.584;2023-01-25T11:24:29;96139.41;;;8.88;59.19
52797;BME280;38666;43.348;12.584;2023-01-25T11:29:42;96121.31;;;9.18;56.69
52797;BME280;38666;43.348;12.584;2023-01-25T11:32:19;96117.25;;;9.57;55.96
52797;BME280;38666;43.348;12.584;2023-01-25T11:34:48;96114.88;;;9.48;55.66
52797;BME280;38666;43.348;12.584;2023-01-25T11:37:21;96115.41;;;9.05;55.31
52797;BME280;38666;43.348;12.584;2023-01-25T11:50:46;96079.00;;;9.39;52.08
52797;BME280;38666;43.348;12.584;2023-01-25T12:01:31;96066.47;;;9.23;53.96
52797;BME280;38666;43.348;12.584;2023-01-25T12:07:05;96044.19;;;10.80;50.04
52797;BME280;38666;43.348;12.584;2023-01-25T12:23:13;96035.53;;;16.72;34.51
52797;BME280;38666;43.348;12.584;2023-01-25T12:28:39;96023.84;;;17.44;33.94
52797;BME280;38666;43.348;12.584;2023-01-25T12:31:21;96004.00;;;16.73;34.88
52797;BME280;38666;43.348;12.584;2023-01-25T12:36:27;96012.22;;;17.92;33.32
52797;BME280;38666;43.348;12.584;2023-01-25T12:39:07;96005.97;;;16.06;35.13
52797;BME280;38666;43.348;12.584;2023-01-25T12:41:54;96003.81;;;14.00;38.74
52797;BME280;38666;43.348;12.584;2023-01-25T12:44:43;95993.44;;;15.27;37.86
52797;BME280;38666;43.348;12.584;2023-01-25T12:47:29;95994.03;;;13.36;41.16
52797;BME280;38666;43.348;12.584;2023-01-25T12:50:10;96001.19;;;13.92;39.98
52797;BME280;38666;43.348;12.584;2023-01-25T12:55:41;95993.25;;;11.44;45.74
52797;BME280;38666;43.348;12.584;2023-01-25T12:58:35;95983.25;;;11.87;45.32
52797;BME280;38666;43.348;12.584;2023-01-25T13:07:02;95973.41;;;11.18;47.66
52797;BME280;38666;43.348;12.584;2023-01-25T13:09:42;95996.00;;;13.70;41.71
52797;BME280;38666;43.348;12.584;2023-01-25T13:12:13;95973.97;;;15.18;38.65
52797;BME280;38666;43.348;12.584;2023-01-25T13:14:40;95971.66;;;15.91;36.54
52797;BME280;38666;43.348;12.584;2023-01-25T13:19:50;95971.75;;;15.70;37.92
52797;BME280;38666;43.348;12.584;2023-01-25T13:25:27;95972.88;;;13.36;42.13
52797;BME280;38666;43.348;12.584;2023-01-25T13:42:04;95972.31;;;11.84;45.81
52797;BME280;38666;43.348;12.584;2023-01-25T13:44:44;95974.53;;;12.11;45.14
52797;BME280;38666;43.348;12.584;2023-01-25T13:47:12;95979.50;;;13.04;42.27
52797;BME280;38666;43.348;12.584;2023-01-25T13:50:00;95960.91;;;14.10;40.82
52797;BME280;38666;43.348;12.584;2023-01-25T13:52:28;95970.03;;;16.77;36.62
52797;BME280;38666;43.348;12.584;2023-01-25T13:54:57;95977.16;;;17.63;33.46
52797;BME280;38666;43.348;12.584;2023-01-25T13:57:27;95958.47;;;15.08;37.97
52797;BME280;38666;43.348;12.584;2023-01-25T14:00:03;95977.66;;;13.64;42.11
52797;BME280;38666;43.348;12.584;2023-01-25T14:02:32;95969.09;;;14.13;41.38
52797;BME280;38666;43.348;12.584;2023-01-25T14:04:59;95957.41;;;14.81;39.42
52797;BME280;38666;43.348;12.584;2023-01-25T14:07:31;95969.53;;;14.36;40.64
52797;BME280;38666;43.348;12.584;2023-01-25T14:10:05;95963.25;;;14.59;40.35
52797;BME280;38666;43.348;12.584;2023-01-25T14:12:37;95968.06;;;14.51;40.19
52797;BME280;38666;43.348;12.584;2023-01-25T14:15:22;95969.56;;;13.80;41.81
52797;BME280;38666;43.348;12.584;2023-01-25T14:18:16;95971.69;;;14.24;40.41
52797;BME280;38666;43.348;12.584;2023-01-25T14:20:45;95971.97;;;13.16;43.22
52797;BME280;38666;43.348;12.584;2023-01-25T14:23:21;95966.72;;;12.02;46.06
52797;BME280;38666;43.348;12.584;2023-01-25T14:25:48;95981.59;;;11.26;48.62
52797;BME280;38666;43.348;12.584;2023-01-25T14:28:14;95977.78;;;11.01;49.61
52797;BME280;38666;43.348;12.584;2023-01-25T14:30:40;95973.56;;;10.82;50.33
52797;BME280;38666;43.348;12.584;2023-01-25T14:33:18;95959.91;;;9.83;53.20
52797;BME280;38666;43.348;12.584;2023-01-25T14:35:46;95978.22;;;8.68;56.52
52797;BME280;38666;43.348;12.584;2023-01-25T14:38:21;95967.28;;;8.64;59.28
52797;BME280;38666;43.348;12.584;2023-01-25T14:40:48;95967.53;;;8.45;61.27
52797;BME280;38666;43.348;12.584;2023-01-25T14:43:15;95959.03;;;8.53;62.38
52797;BME280;38666;43.348;12.584;2023-01-25T14:45:41;95958.47;;;8.26;64.15
52797;BME280;38666;43.348;12.584;2023-01-25T14:48:36;95944.53;;;8.35;64.69
52797;BME280;38666;43.348;12.584;2023-01-25T14:53:54;95932.94;;;8.45;66.30
52797;BME280;38666;43.348;12.584;2023-01-25T14:58:52;95945.06;;;8.02;66.34
52797;BME280;38666;43.348;12.584;2023-01-25T15:01:28;95935.88;;;8.18;64.84
52797;BME280;38666;43.348;12.584;2023-01-25T15:03:55;95948.44;;;7.85;67.19
52797;BME280;38666;43.348;12.584;2023-01-25T15:06:20;95948.91;;;7.52;68.39
52797;BME280;38666;43.348;12.584;2023-01-25T15:08:46;95950.66;;;7.33;68.99
52797;BME280;38666;43.348;12.584;2023-01-25T15:11:32;95946.84;;;7.42;69.34
52797;BME280;38666;43.348;12.584;2023-01-25T15:14:16;95936.03;;;7.45;69.98
52797;BME280;38666;43.348;12.584;2023-01-25T15:16:42;95935.25;;;7.45;70.04
52797;BME280;38666;43.348;12.584;2023-01-25T15:19:26;95954.34;;;7.52;70.30
52797;BME280;38666;43.348;12.584;2023-01-25T15:21:59;95941.38;;;7.38;70.54
52797;BME280;38666;43.348;12.584;2023-01-25T15:24:25;95948.75;;;7.38;69.55
52797;BME280;38666;43.348;12.584;2023-01-25T15:26:52;95942.03;;;7.24;71.48
52797;BME280;38666;43.348;12.584;2023-01-25T15:29:23;95937.97;;;7.07;71.43
52797;BME280;38666;43.348;12.584;2023-01-25T15:31:51;95937.28;;;7.17;69.74
52797;BME280;38666;43.348;12.584;2023-01-25T15:34:27;95939.38;;;6.97;71.83
52797;BME280;38666;43.348;12.584;2023-01-25T15:36:56;95937.63;;;6.81;72.25
52797;BME280;38666;43.348;12.584;2023-01-25T15:39:22;95934.50;;;6.79;71.09
52797;BME280;38666;43.348;12.584;2023-01-25T15:41:47;95929.59;;;6.89;71.37
52797;BME280;38666;43.348;12.584;2023-01-25T15:44:13;95930.09;;;6.98;71.35
52797;BME280;38666;43.348;12.584;2023-01-25T15:46:42;95936.94;;;6.88;72.01
52797;BME280;38666;43.348;12.584;2023-01-25T15:49:16;95939.19;;;6.82;72.60
52797;BME280;38666;43.348;12.584;2023-01-25T15:51:43;95938.50;;;6.89;71.72
52797;BME280;38666;43.348;12.584;2023-01-25T15:54:10;95936.81;;;6.77;72.62
52797;BME280;38666;43.348;12.584;2023-01-25T15:56:36;95934.75;;;6.67;73.94
52797;BME280;38666;43.348;12.584;2023-01-25T15:59:06;95935.16;;;6.69;73.66
52797;BME280;38666;43.348;12.584;2023-01-25T16:01:33;95935.81;;;6.58;73.69
52797;BME280;38666;43.348;12.584;2023-01-25T16:03:59;95932.72;;;6.33;75.65
52797;BME280;38666;43.348;12.584;2023-01-25T16:06:46;95925.59;;;6.48;74.18
52797;BME280;38666;43.348;12.584;2023-01-25T16:09:22;95898.78;;;6.43;74.88
52797;BME280;38666;43.348;12.584;2023-01-25T16:11:52;95911.91;;;6.41;75.06
52797;BME280;38666;43.348;12.584;2023-01-25T16:14:19;95913.66;;;6.56;74.52
52797;BME280;38666;43.348;12.584;2023-01-25T16:16:49;95912.19;;;6.32;76.73
52797;BME280;38666;43.348;12.584;2023-01-25T16:19:19;95926.78;;;6.23;77.64
52797;BME280;38666;43.348;12.584;2023-01-25T16:21:46;95910.66;;;6.34;76.46
52797;BME280;38666;43.348;12.584;2023-01-25T16:24:12;95919.22;;;6.09;78.78
52797;BME280;38666;43.348;12.584;2023-01-25T16:26:42;95918.13;;;5.90;79.91
52797;BME280;38666;43.348;12.584;2023-01-25T16:29:09;95923.31;;;5.99;80.09
52797;BME280;38666;43.348;12.584;2023-01-25T16:31:36;95919.66;;;5.64;80.65
52797;BME280;38666;43.348;12.584;2023-01-25T16:34:01;95920.41;;;5.65;82.00
52797;BME280;38666;43.348;12.584;2023-01-25T16:36:27;95912.97;;;5.82;80.84
52797;BME280;38666;43.348;12.584;2023-01-25T16:38:53;95906.13;;;5.92;80.71
52797;BME280;38666;43.348;12.584;2023-01-25T16:41:19;95916.34;;;6.02;78.82
52797;BME280;38666;43.348;12.584;2023-01-25T16:43:46;95919.34;;;5.70;81.25
52797;BME280;38666;43.348;12.584;2023-01-25T16:48:42;95914.81;;;5.54;83.92
52797;BME280;38666;43.348;12.584;2023-01-25T16:51:14;95909.75;;;5.52;85.11
52797;BME280;38666;43.348;12.584;2023-01-25T16:53:40;95914.28;;;5.68;83.72
52797;BME280;38666;43.348;12.584;2023-01-25T16:56:05;95908.84;;;5.68;83.76
52797;BME280;38666;43.348;12.584;2023-01-25T16:58:31;95903.44;;;5.68;82.92
52797;BME280;38666;43.348;12.584;2023-01-25T17:00:56;95907.91;;;5.57;83.30
52797;BME280;38666;43.348;12.584;2023-01-25T17:03:22;95905.56;;;5.55;83.49
52797;BME280;38666;43.348;12.584;2023-01-25T17:05:51;95908.50;;;5.46;84.23
52797;BME280;38666;43.348;12.584;2023-01-25T17:08:19;95908.31;;;5.35;84.90
52797;BME280;38666;43.348;12.584;2023-01-25T17:10:50;95896.28;;;5.56;83.57
52797;BME280;38666;43.348;12.584;2023-01-25T17:13:18;95897.47;;;5.35;84.72
52797;BME280;38666;43.348;12.584;2023-01-25T17:15:43;95890.72;;;5.49;83.92
52797;BME280;38666;43.348;12.584;2023-01-25T17:18:09;95885.19;;;5.41;83.09
52797;BME280;38666;43.348;12.584;2023-01-25T17:20:34;95878.22;;;5.40;84.50
52797;BME280;38666;43.348;12.584;2023-01-25T17:22:59;95870.09;;;5.40;83.32
52797;BME280;38666;43.348;12.584;2023-01-25T17:25:25;95870.41;;;5.35;83.68
52797;BME280;38666;43.348;12.584;2023-01-25T17:27:50;95878.72;;;5.46;83.17
52797;BME280;38666;43.348;12.584;2023-01-25T17:30:16;95864.44;;;5.26;84.71
52797;BME280;38666;43.348;12.584;2023-01-25T17:32:42;95875.69;;;5.28;84.33
52797;BME280;38666;43.348;12.584;2023-01-25T17:35:08;95881.09;;;5.28;84.14
52797;BME280;38666;43.348;12.584;2023-01-25T17:37:33;95876.16;;;5.10;86.07
52797;BME280;38666;43.348;12.584;2023-01-25T17:39:59;95868.63;;;5.00;87.10
52797;BME280;38666;43.348;12.584;2023-01-25T17:42:24;95872.94;;;5.04;87.04
52797;BME280;38666;43.348;12.584;2023-01-25T17:44:50;95878.00;;;5.06;86.83
52797;BME280;38666;43.348;12.584;2023-01-25T17:47:15;95855.09;;;5.00;86.52
52797;BME280;38666;43.348;12.584;2023-01-25T17:49:41;95860.34;;;4.92;86.60
52797;BME280;38666;43.348;12.584;2023-01-25T17:52:06;95855.91;;;5.04;84.76
52797;BME280;38666;43.348;12.584;2023-01-25T17:54:31;95855.66;;;5.09;85.40
52797;BME280;38666;43.348;12.584;2023-01-25T17:56:57;95851.75;;;4.87;85.30
52797;BME280;38666;43.348;12.584;2023-01-25T17:59:22;95852.41;;;4.80;85.63
52797;BME280;38666;43.348;12.584;2023-01-25T18:01:48;95857.97;;;4.67;86.28
52797;BME280;38666;43.348;12.584;2023-01-25T18:04:14;95843.34;;;4.72;86.58
52797;BME280;38666;43.348;12.584;2023-01-25T18:06:42;95844.50;;;4.71;86.24
52797;BME280;38666;43.348;12.584;2023-01-25T18:09:07;95835.16;;;4.68;86.57
52797;BME280;38666;43.348;12.584;2023-01-25T18:11:35;95846.56;;;4.58;85.97
52797;BME280;38666;43.348;12.584;2023-01-25T18:14:06;95825.63;;;4.55;85.83
52797;BME280;38666;43.348;12.584;2023-01-25T18:16:32;95825.50;;;4.48;87.06
52797;BME280;38666;43.348;12.584;2023-01-25T18:19:00;95829.44;;;4.50;87.31
52797;BME280;38666;43.348;12.584;2023-01-25T18:21:29;95819.72;;;4.69;86.03
52797;BME280;38666;43.348;12.584;2023-01-25T18:24:01;95823.66;;;4.72;85.41
52797;BME280;38666;43.348;12.584;2023-01-25T18:26:33;95830.53;;;4.69;85.68
52797;BME280;38666;43.348;12.584;2023-01-25T18:31:34;95821.47;;;4.81;85.73
52797;BME280;38666;43.348;12.584;2023-01-25T18:33:59;95840.72;;;4.76;85.49
52797;BME280;38666;43.348;12.584;2023-01-25T18:36:25;95833.59;;;4.67;85.66
52797;BME280;38666;43.348;12.584;2023-01-25T18:38:51;95837.75;;;4.61;87.00
52797;BME280;38666;43.348;12.584;2023-01-25T18:41:16;95835.72;;;4.98;83.46
52797;BME280;38666;43.348;12.584;2023-01-25T18:43:41;95840.25;;;4.93;82.13
52797;BME280;38666;43.348;12.584;2023-01-25T18:46:07;95842.69;;;4.99;82.80
52797;BME280;38666;43.348;12.584;2023-01-25T18:48:33;95837.56;;;4.93;81.65
52797;BME280;38666;43.348;12.584;2023-01-25T18:51:08;95842.00;;;4.82;82.53
